Time;durP1;ratioP1;P1;durP2;ratioP2;P2;SDS_P1;SDS_P2;PMS_P1;PMS_P2;Temp;Humidity;BMP_temperature;BMP_pressure;BME280_temperature;BME280_humidity;BME280_pressure;Samples;Min_cycle;Max_cycle;Signal;HPM_P1;HPM_P2
2021/07/03 00:02:04;;;;;;;10.15;6.15;;;;;;;;;;5026482;28;20284;-67
2021/07/03 00:04:29;;;;;;;8.75;5.63;;;;;;;;;;5027687;28;20017;-67
2021/07/03 00:06:55;;;;;;;8.73;5.90;;;;;;;;;;5030753;28;20122;-68
2021/07/03 00:09:20;;;;;;;11.27;6.07;;;;;;;;;;5037816;28;20025;-67
2021/07/03 00:11:45;;;;;;;9.65;6.60;;;;;;;;;;5028814;28;20044;-68
2021/07/03 00:14:11;;;;;;;9.50;6.20;;;;;;;;;;5028926;28;20025;-67
2021/07/03 00:16:36;;;;;;;11.15;6.68;;;;;;;;;;5026654;28;20034;-67
2021/07/03 00:19:01;;;;;;;11.48;6.55;;;;;;;;;;5027636;28;20010;-67
2021/07/03 00:21:27;;;;;;;9.85;6.38;;;;;;;;;;5029087;28;20047;-67
2021/07/03 00:23:52;;;;;;;9.95;6.32;;;;;;;;;;5028853;28;20448;-69
2021/07/03 00:26:17;;;;;;;10.05;6.38;;;;;;;;;;5029412;28;20068;-67
2021/07/03 00:28:43;;;;;;;9.30;6.43;;;;;;;;;;5036737;28;20068;-67
2021/07/03 00:31:08;;;;;;;12.38;7.00;;;;;;;;;;5029729;28;20136;-68
2021/07/03 00:33:33;;;;;;;11.52;6.72;;;;;;;;;;5024409;28;20115;-67
2021/07/03 00:35:58;;;;;;;11.43;7.07;;;;;;;;;;5035532;28;20029;-67
2021/07/03 00:38:23;;;;;;;11.40;7.07;;;;;;;;;;5034758;28;20417;-68
2021/07/03 00:40:48;;;;;;;10.73;6.88;;;;;;;;;;5027068;28;20087;-66
2021/07/03 00:43:14;;;;;;;12.27;6.88;;;;;;;;;;5034295;28;20094;-67
2021/07/03 00:45:39;;;;;;;13.32;6.95;;;;;;;;;;5027114;28;20029;-67
2021/07/03 00:48:05;;;;;;;9.48;6.05;;;;;;;;;;5029863;28;20056;-67
2021/07/03 00:50:30;;;;;;;12.90;6.85;;;;;;;;;;5036240;28;20124;-67
2021/07/03 00:52:55;;;;;;;10.93;6.72;;;;;;;;;;5030421;28;20025;-68
2021/07/03 00:55:20;;;;;;;11.30;6.85;;;;;;;;;;5038889;28;20033;-68
2021/07/03 00:57:46;;;;;;;10.02;6.65;;;;;;;;;;5029507;28;20028;-67
2021/07/03 01:00:12;;;;;;;14.18;6.25;;;;;;;;;;5027003;28;20025;-68
2021/07/03 01:02:38;;;;;;;14.45;6.20;;;;;;;;;;5025069;28;20025;-68
2021/07/03 01:05:03;;;;;;;10.52;6.55;;;;;;;;;;5027493;28;20040;-67
2021/07/03 01:07:29;;;;;;;13.55;6.65;;;;;;;;;;5029908;28;20028;-66
2021/07/03 01:09:54;;;;;;;10.90;6.38;;;;;;;;;;5033864;28;20032;-67
2021/07/03 01:12:19;;;;;;;10.48;6.70;;;;;;;;;;5034518;28;20029;-69
2021/07/03 01:14:45;;;;;;;12.80;6.97;;;;;;;;;;5033308;28;20071;-68
2021/07/03 01:17:11;;;;;;;11.18;6.75;;;;;;;;;;5036740;28;20055;-67
2021/07/03 01:19:37;;;;;;;10.43;6.68;;;;;;;;;;5026271;28;20083;-67
2021/07/03 01:22:04;;;;;;;9.02;5.93;;;;;;;;;;5027809;28;20412;-67
2021/07/03 01:24:29;;;;;;;9.95;6.00;;;;;;;;;;5026395;28;20030;-68
2021/07/03 01:26:54;;;;;;;9.60;5.93;;;;;;;;;;5036403;28;20033;-68
2021/07/03 01:29:21;;;;;;;10.57;6.72;;;;;;;;;;5032859;28;20107;-68
2021/07/03 01:31:47;;;;;;;10.10;5.93;;;;;;;;;;5033326;28;20033;-68
2021/07/03 01:34:16;;;;;;;11.15;6.55;;;;;;;;;;5034034;28;20032;-66
2021/07/03 01:36:41;;;;;;;10.57;6.25;;;;;;;;;;5025592;28;20025;-67
2021/07/03 01:39:07;;;;;;;10.02;5.90;;;;;;;;;;5029820;28;20017;-67
2021/07/03 01:41:32;;;;;;;10.45;6.80;;;;;;;;;;5034106;28;20555;-67
2021/07/03 01:43:58;;;;;;;9.52;6.10;;;;;;;;;;5039305;28;20030;-67
2021/07/03 01:46:23;;;;;;;11.15;6.53;;;;;;;;;;5026318;28;20032;-67
2021/07/03 01:48:48;;;;;;;10.32;6.45;;;;;;;;;;5030870;28;20049;-67
2021/07/03 01:51:13;;;;;;;12.30;6.65;;;;;;;;;;5040318;28;20029;-67
2021/07/03 01:53:39;;;;;;;9.35;5.88;;;;;;;;;;5027982;28;20022;-66
2021/07/03 01:56:06;;;;;;;10.38;6.20;;;;;;;;;;5030174;28;20477;-67
2021/07/03 01:58:31;;;;;;;10.63;6.43;;;;;;;;;;5035767;28;20377;-66
2021/07/03 02:00:58;;;;;;;11.48;6.82;;;;;;;;;;5026274;28;20101;-68
2021/07/03 02:03:23;;;;;;;9.15;6.32;;;;;;;;;;5029320;28;20186;-68
2021/07/03 02:05:50;;;;;;;9.02;6.20;;;;;;;;;;5029093;28;20026;-66
2021/07/03 02:08:15;;;;;;;9.90;6.75;;;;;;;;;;5022035;28;20477;-68
2021/07/03 02:10:41;;;;;;;10.13;5.95;;;;;;;;;;5026294;28;20040;-67
2021/07/03 02:13:06;;;;;;;9.85;6.20;;;;;;;;;;5032471;28;20025;-67
2021/07/03 02:15:32;;;;;;;11.40;6.05;;;;;;;;;;5040221;28;20441;-67
2021/07/03 02:17:57;;;;;;;9.73;6.22;;;;;;;;;;5032633;28;20021;-67
2021/07/03 02:20:23;;;;;;;10.02;6.97;;;;;;;;;;5027146;28;20029;-67
2021/07/03 02:22:48;;;;;;;9.68;6.15;;;;;;;;;;5032919;28;20021;-67
2021/07/03 02:25:14;;;;;;;12.32;6.75;;;;;;;;;;5037552;28;20029;-67
2021/07/03 02:27:39;;;;;;;8.73;5.82;;;;;;;;;;5033304;28;20029;-68
2021/07/03 02:30:08;;;;;;;9.18;5.68;;;;;;;;;;5033551;28;20224;-67
2021/07/03 02:32:34;;;;;;;11.68;7.13;;;;;;;;;;5031019;28;20037;-71
2021/07/03 02:34:59;;;;;;;16.00;6.68;;;;;;;;;;5031482;28;20036;-67
2021/07/03 02:37:24;;;;;;;8.32;6.18;;;;;;;;;;5032032;28;20135;-67
2021/07/03 02:39:49;;;;;;;13.95;6.57;;;;;;;;;;5027266;28;20025;-67
2021/07/03 02:42:14;;;;;;;11.43;6.47;;;;;;;;;;5032656;28;20049;-66
2021/07/03 02:44:40;;;;;;;10.27;6.38;;;;;;;;;;5040144;28;20037;-67
2021/07/03 02:47:05;;;;;;;11.77;7.07;;;;;;;;;;5039129;28;20384;-67
2021/07/03 02:49:30;;;;;;;13.80;7.07;;;;;;;;;;5036975;28;20087;-66
2021/07/03 02:51:56;;;;;;;10.02;6.57;;;;;;;;;;5036170;28;20469;-68
2021/07/03 02:54:21;;;;;;;13.20;7.05;;;;;;;;;;5031821;28;20025;-66
2021/07/03 02:56:46;;;;;;;12.32;7.30;;;;;;;;;;5040389;28;20107;-67
2021/07/03 02:59:12;;;;;;;11.02;6.82;;;;;;;;;;5037079;28;20683;-68
2021/07/03 03:01:37;;;;;;;12.27;7.47;;;;;;;;;;5031092;28;20025;-67
2021/07/03 03:04:02;;;;;;;12.48;7.57;;;;;;;;;;5037920;28;20365;-67
2021/07/03 03:06:27;;;;;;;10.18;6.65;;;;;;;;;;5039095;28;20101;-67
2021/07/03 03:08:53;;;;;;;11.27;6.90;;;;;;;;;;5036060;28;20144;-67
2021/07/03 03:11:18;;;;;;;9.10;6.30;;;;;;;;;;5039754;28;20053;-68
2021/07/03 03:13:43;;;;;;;10.00;6.47;;;;;;;;;;5031192;28;20479;-66
2021/07/03 03:16:08;;;;;;;11.02;6.63;;;;;;;;;;5043531;28;20116;-67
2021/07/03 03:18:33;;;;;;;10.05;6.28;;;;;;;;;;5029445;28;20045;-67
2021/07/03 03:20:59;;;;;;;10.88;6.88;;;;;;;;;;5038522;28;20057;-67
2021/07/03 03:23:24;;;;;;;11.40;6.82;;;;;;;;;;5027381;28;20452;-67
2021/07/03 03:25:49;;;;;;;11.45;6.88;;;;;;;;;;5042304;28;20028;-67
2021/07/03 03:28:14;;;;;;;12.52;7.10;;;;;;;;;;5039798;28;20041;-67
2021/07/03 03:30:39;;;;;;;11.02;7.35;;;;;;;;;;5041876;28;20072;-66
2021/07/03 03:33:05;;;;;;;9.90;6.43;;;;;;;;;;5036535;28;20064;-67
2021/07/03 03:35:30;;;;;;;11.52;6.35;;;;;;;;;;5028419;28;20037;-67
2021/07/03 03:37:55;;;;;;;10.45;6.28;;;;;;;;;;5040036;28;20047;-66
2021/07/03 03:40:20;;;;;;;10.95;6.47;;;;;;;;;;5027909;28;20036;-67
2021/07/03 03:42:46;;;;;;;10.73;6.07;;;;;;;;;;5038590;28;20076;-67
2021/07/03 03:45:12;;;;;;;10.63;6.35;;;;;;;;;;5032582;28;20044;-67
2021/07/03 03:47:37;;;;;;;12.80;6.80;;;;;;;;;;5030216;28;20029;-67
2021/07/03 03:50:03;;;;;;;10.13;5.65;;;;;;;;;;5034190;28;20018;-66
2021/07/03 03:52:28;;;;;;;11.13;6.57;;;;;;;;;;5037092;28;20029;-67
2021/07/03 03:54:53;;;;;;;10.20;6.30;;;;;;;;;;5034853;28;20452;-67
2021/07/03 03:57:22;;;;;;;10.18;6.47;;;;;;;;;;5041233;28;20268;-67
2021/07/03 03:59:47;;;;;;;9.50;6.72;;;;;;;;;;5032964;28;20025;-67
2021/07/03 04:02:13;;;;;;;9.90;6.20;;;;;;;;;;5038087;28;20033;-67
2021/07/03 04:04:38;;;;;;;10.73;6.53;;;;;;;;;;5036059;28;20555;-67
2021/07/03 04:07:03;;;;;;;10.60;6.25;;;;;;;;;;5035003;28;20067;-67
2021/07/03 04:09:28;;;;;;;13.65;6.80;;;;;;;;;;5031422;28;20018;-66
2021/07/03 04:11:55;;;;;;;11.93;6.07;;;;;;;;;;5028909;28;20087;-66
2021/07/03 04:14:21;;;;;;;10.43;6.28;;;;;;;;;;5040911;28;20256;-67
2021/07/03 04:16:46;;;;;;;10.10;6.65;;;;;;;;;;5027876;28;20032;-66
2021/07/03 04:19:11;;;;;;;10.13;6.25;;;;;;;;;;5029602;28;20044;-66
2021/07/03 04:21:36;;;;;;;10.23;6.03;;;;;;;;;;5026717;28;20108;-66
2021/07/03 04:24:01;;;;;;;8.43;5.30;;;;;;;;;;5035742;28;20072;-67
2021/07/03 04:26:26;;;;;;;10.73;5.40;;;;;;;;;;5029500;28;20308;-65
2021/07/03 04:28:52;;;;;;;8.70;5.32;;;;;;;;;;5026099;28;20017;-66
2021/07/03 04:31:17;;;;;;;8.27;5.13;;;;;;;;;;5028644;28;20037;-67
2021/07/03 04:33:42;;;;;;;8.45;4.78;;;;;;;;;;5028043;28;20102;-66
2021/07/03 04:36:07;;;;;;;6.90;4.90;;;;;;;;;;5029446;28;20036;-66
2021/07/03 04:38:33;;;;;;;7.57;4.93;;;;;;;;;;5024842;28;20363;-67
2021/07/03 04:40:58;;;;;;;8.63;5.15;;;;;;;;;;5030331;28;20507;-65
2021/07/03 04:43:23;;;;;;;7.10;4.40;;;;;;;;;;5029629;28;20381;-66
2021/07/03 04:45:48;;;;;;;6.60;4.50;;;;;;;;;;5029776;28;20034;-66
2021/07/03 04:48:13;;;;;;;6.95;4.60;;;;;;;;;;5026854;28;20291;-66
2021/07/03 04:50:38;;;;;;;6.80;4.43;;;;;;;;;;5037050;28;20032;-66
2021/07/03 04:53:04;;;;;;;7.40;4.78;;;;;;;;;;5027893;28;20087;-66
2021/07/03 04:55:29;;;;;;;6.82;4.80;;;;;;;;;;5032382;28;20025;-67
2021/07/03 04:57:56;;;;;;;7.43;4.78;;;;;;;;;;5028988;28;20480;-65
2021/07/03 05:00:21;;;;;;;6.70;4.55;;;;;;;;;;5027030;28;20159;-67
2021/07/03 05:02:47;;;;;;;8.27;5.53;;;;;;;;;;5030145;28;20788;-66
2021/07/03 05:05:12;;;;;;;7.20;4.53;;;;;;;;;;5029159;28;20272;-67
2021/07/03 05:07:38;;;;;;;9.32;4.25;;;;;;;;;;5025029;28;20814;-66
2021/07/03 05:10:03;;;;;;;6.60;4.47;;;;;;;;;;5022306;28;20071;-67
2021/07/03 05:12:28;;;;;;;6.40;4.40;;;;;;;;;;5028416;28;20040;-66
2021/07/03 05:14:53;;;;;;;9.63;4.60;;;;;;;;;;5032220;28;20036;-67
2021/07/03 05:17:19;;;;;;;6.93;4.40;;;;;;;;;;5026755;28;20113;-65
2021/07/03 05:19:44;;;;;;;7.40;4.55;;;;;;;;;;5024647;28;20495;-66
2021/07/03 05:22:09;;;;;;;7.15;4.60;;;;;;;;;;5029507;28;20169;-67
2021/07/03 05:24:34;;;;;;;7.13;4.88;;;;;;;;;;5030827;28;20024;-67
2021/07/03 05:27:00;;;;;;;8.50;5.03;;;;;;;;;;5023083;28;20025;-66
2021/07/03 05:29:25;;;;;;;7.40;4.93;;;;;;;;;;5026931;28;20272;-66
2021/07/03 05:31:51;;;;;;;7.72;4.32;;;;;;;;;;5028788;28;20041;-66
2021/07/03 05:34:16;;;;;;;7.10;5.03;;;;;;;;;;5025599;28;20110;-67
2021/07/03 05:36:44;;;;;;;6.07;4.32;;;;;;;;;;5029238;28;20071;-67
2021/07/03 05:39:09;;;;;;;5.63;4.18;;;;;;;;;;5030657;28;20025;-67
2021/07/03 05:41:35;;;;;;;7.57;4.27;;;;;;;;;;5023683;28;20404;-66
2021/07/03 05:44:00;;;;;;;6.25;4.15;;;;;;;;;;5021226;28;20276;-68
2021/07/03 05:46:26;;;;;;;7.80;4.47;;;;;;;;;;5026799;28;20022;-66
2021/07/03 05:48:52;;;;;;;6.78;4.22;;;;;;;;;;5028903;28;20032;-65
2021/07/03 05:51:18;;;;;;;7.03;3.97;;;;;;;;;;5021181;28;20033;-67
2021/07/03 05:53:43;;;;;;;8.20;4.57;;;;;;;;;;5024874;28;20380;-66
2021/07/03 05:56:08;;;;;;;7.13;4.20;;;;;;;;;;5030517;28;20026;-67
2021/07/03 05:58:33;;;;;;;5.93;3.88;;;;;;;;;;5026987;28;20279;-66
2021/07/03 06:00:59;;;;;;;5.97;3.90;;;;;;;;;;5023159;28;20017;-66
2021/07/03 06:03:24;;;;;;;6.22;4.03;;;;;;;;;;5026978;28;20358;-65
2021/07/03 06:05:49;;;;;;;6.43;4.10;;;;;;;;;;5025624;28;20018;-67
2021/07/03 06:08:14;;;;;;;5.30;4.00;;;;;;;;;;5030840;28;20048;-68
2021/07/03 06:10:40;;;;;;;6.07;3.80;;;;;;;;;;5038381;28;20036;-67
2021/07/03 06:13:05;;;;;;;6.10;3.60;;;;;;;;;;5031385;28;20130;-66
2021/07/03 06:15:30;;;;;;;7.10;4.00;;;;;;;;;;5031377;28;20284;-67
2021/07/03 06:17:55;;;;;;;6.07;3.80;;;;;;;;;;5041992;28;20027;-66
2021/07/03 06:20:22;;;;;;;4.93;3.83;;;;;;;;;;5034438;28;20025;-67
2021/07/03 06:22:47;;;;;;;5.72;3.50;;;;;;;;;;5032901;28;20272;-67
2021/07/03 06:25:12;;;;;;;5.17;3.80;;;;;;;;;;5032340;28;20028;-66
2021/07/03 06:27:38;;;;;;;5.75;3.92;;;;;;;;;;5040868;28;20033;-67
2021/07/03 06:30:06;;;;;;;7.95;3.70;;;;;;;;;;5032437;28;20541;-67
2021/07/03 06:32:32;;;;;;;5.68;3.78;;;;;;;;;;5026348;28;20566;-67
2021/07/03 06:34:57;;;;;;;4.70;3.60;;;;;;;;;;5031288;28;20021;-68
2021/07/03 06:37:22;;;;;;;6.03;3.93;;;;;;;;;;5030337;28;20056;-67
2021/07/03 06:39:48;;;;;;;6.00;3.87;;;;;;;;;;5033945;28;20280;-67
2021/07/03 06:42:13;;;;;;;5.20;4.07;;;;;;;;;;5028496;28;20377;-66
2021/07/03 06:44:38;;;;;;;5.27;3.90;;;;;;;;;;5030952;28;20601;-67
2021/07/03 06:47:03;;;;;;;6.00;4.30;;;;;;;;;;5029138;28;20864;-67
2021/07/03 06:49:29;;;;;;;8.30;4.30;;;;;;;;;;5037395;28;20523;-66
2021/07/03 06:51:54;;;;;;;5.50;4.00;;;;;;;;;;5030065;28;20306;-67
2021/07/03 06:54:19;;;;;;;5.93;4.07;;;;;;;;;;5042323;28;20400;-66
2021/07/03 06:56:44;;;;;;;6.63;3.65;;;;;;;;;;5032828;28;20281;-68
2021/07/03 06:59:10;;;;;;;6.07;3.80;;;;;;;;;;5030691;28;20057;-70
2021/07/03 07:01:35;;;;;;;6.32;4.18;;;;;;;;;;5028409;28;20085;-69
2021/07/03 07:04:00;;;;;;;7.03;3.85;;;;;;;;;;5031379;28;20033;-72
2021/07/03 07:06:25;;;;;;;7.65;4.30;;;;;;;;;;5033541;28;20080;-68
2021/07/03 07:08:50;;;;;;;5.55;3.78;;;;;;;;;;5032501;28;20029;-69
2021/07/03 07:11:16;;;;;;;5.47;3.75;;;;;;;;;;5030941;28;20026;-69
2021/07/03 07:13:41;;;;;;;8.90;4.20;;;;;;;;;;5030729;28;20029;-69
2021/07/03 07:16:06;;;;;;;7.35;4.13;;;;;;;;;;5030227;28;20272;-69
2021/07/03 07:18:31;;;;;;;6.17;3.67;;;;;;;;;;5037055;28;20029;-68
2021/07/03 07:20:56;;;;;;;5.75;3.58;;;;;;;;;;5030506;28;20286;-69
2021/07/03 07:23:22;;;;;;;5.00;3.60;;;;;;;;;;5043929;28;20104;-69
2021/07/03 07:25:50;;;;;;;6.80;3.80;;;;;;;;;;5033436;28;20689;-69
2021/07/03 07:28:15;;;;;;;6.15;3.45;;;;;;;;;;5031216;28;20268;-69
2021/07/03 07:30:40;;;;;;;5.75;3.10;;;;;;;;;;5033121;28;20113;-68
2021/07/03 07:33:05;;;;;;;6.93;3.43;;;;;;;;;;5030560;28;20427;-70
2021/07/03 07:35:31;;;;;;;5.55;3.47;;;;;;;;;;5031066;28;20284;-69
2021/07/03 07:37:56;;;;;;;8.15;3.38;;;;;;;;;;5031806;28;20025;-72
2021/07/03 07:40:21;;;;;;;5.60;3.63;;;;;;;;;;5030042;28;20016;-69
2021/07/03 07:42:46;;;;;;;7.15;4.18;;;;;;;;;;5022789;28;20716;-70
2021/07/03 07:45:12;;;;;;;6.50;4.22;;;;;;;;;;5032784;28;20060;-69
2021/07/03 07:47:37;;;;;;;4.25;2.97;;;;;;;;;;5032902;28;20025;-63
2021/07/03 07:50:05;;;;;;;5.15;3.55;;;;;;;;;;5041835;28;20021;-64
2021/07/03 07:52:30;;;;;;;5.15;3.55;;;;;;;;;;5045569;28;20040;-64
2021/07/03 07:54:55;;;;;;;5.18;3.55;;;;;;;;;;5035042;28;20374;-64
2021/07/03 07:57:21;;;;;;;7.63;4.03;;;;;;;;;;5032164;28;20473;-64
2021/07/03 07:59:47;;;;;;;8.50;3.80;;;;;;;;;;5029323;28;20260;-65
2021/07/03 08:02:12;;;;;;;4.55;3.28;;;;;;;;;;5029901;28;20028;-64
2021/07/03 08:04:37;;;;;;;5.93;3.70;;;;;;;;;;5030199;28;20393;-65
2021/07/03 08:07:02;;;;;;;5.97;4.03;;;;;;;;;;5025277;28;20280;-65
2021/07/03 08:09:28;;;;;;;5.15;3.55;;;;;;;;;;5035616;28;20017;-66
2021/07/03 08:11:53;;;;;;;6.50;4.33;;;;;;;;;;5036264;28;20049;-65
2021/07/03 08:14:19;;;;;;;5.50;3.80;;;;;;;;;;5038096;28;20287;-64
2021/07/03 08:16:44;;;;;;;6.37;4.00;;;;;;;;;;5026401;28;20398;-65
2021/07/03 08:19:09;;;;;;;5.47;3.87;;;;;;;;;;5028417;28;20272;-62
2021/07/03 08:21:34;;;;;;;5.43;3.72;;;;;;;;;;5036520;28;20864;-62
2021/07/03 08:24:00;;;;;;;4.90;3.58;;;;;;;;;;5027061;28;20033;-64
2021/07/03 08:26:25;;;;;;;6.47;3.92;;;;;;;;;;5032908;28;20021;-62
2021/07/03 08:28:50;;;;;;;7.43;4.07;;;;;;;;;;5028814;28;20194;-62
2021/07/03 08:31:16;;;;;;;7.50;3.88;;;;;;;;;;5030222;28;20307;-63
2021/07/03 08:33:41;;;;;;;5.32;3.78;;;;;;;;;;5027940;28;20838;-63
2021/07/03 08:36:06;;;;;;;10.30;4.15;;;;;;;;;;5037363;28;20495;-63
2021/07/03 08:38:32;;;;;;;6.60;3.60;;;;;;;;;;5031089;28;20080;-63
2021/07/03 08:40:58;;;;;;;8.27;4.50;;;;;;;;;;5036066;28;20100;-64
2021/07/03 08:43:23;;;;;;;5.70;3.97;;;;;;;;;;5029358;28;20036;-63
2021/07/03 08:45:53;;;;;;;7.32;3.65;;;;;;;;;;5037615;28;20021;-62
2021/07/03 08:48:19;;;;;;;5.75;3.70;;;;;;;;;;5028060;28;20021;-63
2021/07/03 08:50:44;;;;;;;6.47;4.00;;;;;;;;;;5022070;28;20079;-62
2021/07/03 08:53:09;;;;;;;6.47;3.75;;;;;;;;;;5030883;28;20032;-63
2021/07/03 08:55:35;;;;;;;5.47;3.50;;;;;;;;;;5029465;28;20025;-63
2021/07/03 08:58:04;;;;;;;6.80;3.70;;;;;;;;;;5033127;28;20151;-64
2021/07/03 09:00:33;;;;;;;6.07;3.70;;;;;;;;;;5041008;28;20047;-63
2021/07/03 09:02:59;;;;;;;5.55;3.95;;;;;;;;;;5041735;28;20032;-62
2021/07/03 09:05:30;;;;;;;5.32;3.85;;;;;;;;;;5036021;28;20426;-63
2021/07/03 09:07:56;;;;;;;5.63;3.60;;;;;;;;;;5035333;28;20075;-64
2021/07/03 09:10:22;;;;;;;5.72;3.63;;;;;;;;;;5035889;28;20036;-63
2021/07/03 09:12:49;;;;;;;7.45;3.97;;;;;;;;;;5031309;28;20044;-62
2021/07/03 09:15:16;;;;;;;7.00;3.90;;;;;;;;;;5037267;28;20048;-63
2021/07/03 09:17:45;;;;;;;6.15;4.15;;;;;;;;;;5028236;28;20511;-62
2021/07/03 09:20:11;;;;;;;5.30;4.13;;;;;;;;;;5028770;28;20044;-63
2021/07/03 09:22:36;;;;;;;6.57;3.88;;;;;;;;;;5029541;28;20034;-63
2021/07/03 09:25:01;;;;;;;7.15;3.83;;;;;;;;;;5031449;28;20172;-63
2021/07/03 09:27:26;;;;;;;4.73;3.80;;;;;;;;;;5027363;28;20079;-62
2021/07/03 09:29:51;;;;;;;5.83;3.70;;;;;;;;;;5027050;28;20643;-63
2021/07/03 09:32:17;;;;;;;5.00;3.55;;;;;;;;;;5034153;28;20354;-63
2021/07/03 09:34:42;;;;;;;9.10;4.07;;;;;;;;;;5035821;28;20040;-63
2021/07/03 09:37:08;;;;;;;7.03;3.85;;;;;;;;;;5027372;28;20500;-63
2021/07/03 09:39:33;;;;;;;6.55;3.75;;;;;;;;;;5029711;28;20032;-62
2021/07/03 09:41:58;;;;;;;6.63;4.50;;;;;;;;;;5034662;28;20059;-62
2021/07/03 09:44:23;;;;;;;9.50;3.97;;;;;;;;;;5039708;28;20632;-62
2021/07/03 09:46:50;;;;;;;7.50;4.33;;;;;;;;;;5033333;28;20029;-63
2021/07/03 09:49:18;;;;;;;5.45;3.88;;;;;;;;;;5036258;28;20271;-62
2021/07/03 09:51:48;;;;;;;5.50;4.07;;;;;;;;;;5040168;28;20124;-62
2021/07/03 09:54:14;;;;;;;12.75;4.15;;;;;;;;;;5038121;28;20087;-62
2021/07/03 09:56:40;;;;;;;5.63;3.70;;;;;;;;;;5040895;28;20029;-62
2021/07/03 09:59:06;;;;;;;5.85;3.88;;;;;;;;;;5034120;28;20030;-62
2021/07/03 10:01:31;;;;;;;6.75;4.03;;;;;;;;;;5041986;28;20082;-63
2021/07/03 10:04:00;;;;;;;5.55;3.78;;;;;;;;;;5030806;28;20072;-61
2021/07/03 10:06:30;;;;;;;7.90;4.30;;;;;;;;;;5035697;28;20029;-62
2021/07/03 10:08:57;;;;;;;6.60;4.18;;;;;;;;;;5041833;28;20268;-63
2021/07/03 10:11:24;;;;;;;6.10;3.90;;;;;;;;;;5038611;28;20036;-61
2021/07/03 10:14:07;;;;;;;6.13;3.70;;;;;;;;;;5035579;28;20022;-64
2021/07/03 10:16:33;;;;;;;6.25;3.83;;;;;;;;;;5035730;28;20029;-63
2021/07/03 10:19:05;;;;;;;6.05;4.10;;;;;;;;;;5031673;28;20025;-61
2021/07/03 10:21:30;;;;;;;7.65;3.83;;;;;;;;;;5031785;28;20564;-61
2021/07/03 10:23:56;;;;;;;8.83;4.63;;;;;;;;;;5032346;28;20101;-63
2021/07/03 10:26:21;;;;;;;6.10;4.13;;;;;;;;;;5035623;28;20274;-63
2021/07/03 10:28:49;;;;;;;9.63;5.33;;;;;;;;;;5030486;28;20040;-63
2021/07/03 10:31:14;;;;;;;6.18;3.67;;;;;;;;;;5033863;28;20307;-62
2021/07/03 10:33:41;;;;;;;4.88;3.65;;;;;;;;;;5035915;28;20401;-62
2021/07/03 10:36:07;;;;;;;8.10;4.45;;;;;;;;;;5031872;28;20489;-62
2021/07/03 10:38:40;;;;;;;6.80;4.43;;;;;;;;;;5032429;28;20018;-62
2021/07/03 10:41:11;;;;;;;6.03;4.00;;;;;;;;;;5042735;28;20471;-62
2021/07/03 10:43:46;;;;;;;7.35;4.00;;;;;;;;;;5029291;28;20078;-63
2021/07/03 10:46:11;;;;;;;8.85;4.32;;;;;;;;;;5030668;28;20112;-62
2021/07/03 10:48:37;;;;;;;8.48;4.30;;;;;;;;;;5033006;28;20426;-63
2021/07/03 10:51:09;;;;;;;6.50;4.32;;;;;;;;;;5029300;28;20033;-62
2021/07/03 10:53:34;;;;;;;6.75;4.40;;;;;;;;;;5038043;28;20029;-63
2021/07/03 10:56:14;;;;;;;5.75;4.15;;;;;;;;;;5030408;28;20084;-61
2021/07/03 10:58:40;;;;;;;6.90;4.00;;;;;;;;;;5037745;28;20130;-62
2021/07/03 11:01:07;;;;;;;7.38;4.45;;;;;;;;;;5041106;28;20029;-62
2021/07/03 11:03:40;;;;;;;6.78;3.47;;;;;;;;;;5031455;28;20013;-65
2021/07/03 11:06:12;;;;;;;6.10;3.97;;;;;;;;;;5029803;28;20033;-68
2021/07/03 11:08:39;;;;;;;7.20;4.05;;;;;;;;;;5029043;28;20027;-71
2021/07/03 11:11:08;;;;;;;5.60;4.20;;;;;;;;;;5040260;28;20091;-65
2021/07/03 11:13:34;;;;;;;7.20;4.43;;;;;;;;;;5038976;28;20044;-66
2021/07/03 11:16:01;;;;;;;6.35;4.28;;;;;;;;;;5036976;28;20113;-66
2021/07/03 11:18:30;;;;;;;8.00;4.45;;;;;;;;;;5031825;28;20025;-66
2021/07/03 11:20:57;;;;;;;6.88;4.10;;;;;;;;;;5027902;28;20469;-66
2021/07/03 11:23:22;;;;;;;5.35;3.58;;;;;;;;;;5040085;28;20593;-65
2021/07/03 11:25:48;;;;;;;7.22;4.47;;;;;;;;;;5034911;28;20108;-64
2021/07/03 11:28:13;;;;;;;6.38;3.92;;;;;;;;;;5048012;28;20066;-65
2021/07/03 11:30:40;;;;;;;5.43;3.60;;;;;;;;;;5034538;28;20112;-77
2021/07/03 11:33:06;;;;;;;9.35;4.50;;;;;;;;;;5030945;28;20730;-80
2021/07/03 11:35:32;;;;;;;6.55;4.90;;;;;;;;;;5043401;28;20033;-79
2021/07/03 11:37:57;;;;;;;6.53;4.45;;;;;;;;;;5032622;28;20021;-71
2021/07/03 11:40:25;;;;;;;6.05;4.25;;;;;;;;;;5031687;28;20037;-73
2021/07/03 11:42:51;;;;;;;7.45;4.25;;;;;;;;;;4359633;28;18044079;-74
2021/07/03 11:45:18;;;;;;;6.35;4.47;;;;;;;;;;4982329;28;20104;-72
2021/07/03 11:47:48;;;;;;;7.97;4.38;;;;;;;;;;4987207;28;20472;-70
2021/07/03 11:50:14;;;;;;;6.30;3.85;;;;;;;;;;4981203;28;20035;-69
2021/07/03 11:52:47;;;;;;;6.32;4.05;;;;;;;;;;4981669;28;20402;-74
2021/07/03 11:55:13;;;;;;;5.75;3.63;;;;;;;;;;4977003;28;20034;-75
2021/07/03 11:57:39;;;;;;;5.30;3.30;;;;;;;;;;4993942;28;20101;-74
2021/07/03 12:00:04;;;;;;;5.15;3.47;;;;;;;;;;4984791;28;20586;-77
2021/07/03 12:02:30;;;;;;;5.25;3.83;;;;;;;;;;4977736;28;20068;-72
2021/07/03 12:04:55;;;;;;;5.47;3.65;;;;;;;;;;4988061;28;20482;-70
2021/07/03 12:07:21;;;;;;;5.93;3.95;;;;;;;;;;4971068;28;20099;-70
2021/07/03 12:09:46;;;;;;;5.78;4.10;;;;;;;;;;4985369;28;20080;-71
2021/07/03 12:12:11;;;;;;;7.63;4.47;;;;;;;;;;4969561;28;20030;-70
2021/07/03 12:14:36;;;;;;;4.47;3.43;;;;;;;;;;4976165;28;20045;-71
2021/07/03 12:17:02;;;;;;;8.93;3.92;;;;;;;;;;4987542;28;20492;-68
2021/07/03 12:19:27;;;;;;;7.75;3.45;;;;;;;;;;4980162;28;20022;-73
2021/07/03 12:22:03;;;;;;;5.25;3.22;;;;;;;;;;5034244;28;20021;-73
2021/07/03 12:24:28;;;;;;;5.80;3.20;;;;;;;;;;5040457;28;20043;-74
2021/07/03 12:26:53;;;;;;;4.97;3.10;;;;;;;;;;5037189;28;20473;-77
2021/07/03 12:29:27;;;;;;;6.05;3.45;;;;;;;;;;5034176;28;20029;-71
2021/07/03 12:31:52;;;;;;;5.78;3.60;;;;;;;;;;5042688;28;20135;-71
2021/07/03 12:34:25;;;;;;;5.18;3.53;;;;;;;;;;5039303;28;20053;-76
2021/07/03 12:36:51;;;;;;;4.90;3.53;;;;;;;;;;5039964;28;20399;-73
2021/07/03 12:39:21;;;;;;;5.45;3.97;;;;;;;;;;5039624;28;20394;-76
2021/07/03 12:41:52;;;;;;;5.78;3.33;;;;;;;;;;5029114;28;20072;-71
2021/07/03 12:44:17;;;;;;;6.22;3.63;;;;;;;;;;5027906;28;20444;-69
2021/07/03 12:46:43;;;;;;;6.03;3.60;;;;;;;;;;5036568;28;20113;-72
2021/07/03 12:49:08;;;;;;;6.95;3.97;;;;;;;;;;5030693;28;20267;-75
2021/07/03 12:51:35;;;;;;;5.85;3.33;;;;;;;;;;5034617;28;20033;-73
2021/07/03 12:54:01;;;;;;;4.72;3.50;;;;;;;;;;5032617;28;20029;-75
2021/07/03 12:56:27;;;;;;;4.50;3.33;;;;;;;;;;5039016;28;20025;-73
2021/07/03 12:58:56;;;;;;;7.05;3.65;;;;;;;;;;5035336;28;20068;-71
2021/07/03 13:01:27;;;;;;;4.53;3.30;;;;;;;;;;5037875;28;20043;-73
2021/07/03 13:03:52;;;;;;;4.93;3.42;;;;;;;;;;5035992;28;20369;-70
2021/07/03 13:06:22;;;;;;;5.07;3.93;;;;;;;;;;5035478;28;20032;-76
2021/07/03 13:08:47;;;;;;;5.40;3.50;;;;;;;;;;5039258;28;20025;-73
2021/07/03 13:11:13;;;;;;;5.43;3.00;;;;;;;;;;5038704;28;20431;-68
2021/07/03 13:13:38;;;;;;;4.33;3.13;;;;;;;;;;5038481;28;20306;-71
2021/07/03 13:16:03;;;;;;;8.98;4.20;;;;;;;;;;5036406;28;20639;-68
2021/07/03 13:18:28;;;;;;;5.75;3.45;;;;;;;;;;5036435;28;20067;-69
2021/07/03 13:20:54;;;;;;;5.17;3.23;;;;;;;;;;5031456;28;20041;-73
2021/07/03 13:23:19;;;;;;;5.93;3.33;;;;;;;;;;5036564;28;20429;-72
2021/07/03 13:25:44;;;;;;;4.03;2.83;;;;;;;;;;5039067;28;20272;-69
2021/07/03 13:28:11;;;;;;;4.80;3.63;;;;;;;;;;5039400;28;20282;-71
2021/07/03 13:30:37;;;;;;;5.63;3.80;;;;;;;;;;5033144;28;20025;-68
2021/07/03 13:33:02;;;;;;;5.55;3.25;;;;;;;;;;5034368;28;20037;-68
2021/07/03 13:35:29;;;;;;;5.05;3.25;;;;;;;;;;5038452;28;20050;-66
2021/07/03 13:37:54;;;;;;;4.28;3.20;;;;;;;;;;5038382;28;20108;-74
2021/07/03 13:40:20;;;;;;;5.47;2.87;;;;;;;;;;5035434;28;20120;-72
2021/07/03 13:42:45;;;;;;;4.53;3.30;;;;;;;;;;5032162;28;20299;-76
2021/07/03 13:45:11;;;;;;;3.92;2.85;;;;;;;;;;5032448;28;20029;-72
2021/07/03 13:47:36;;;;;;;5.28;3.00;;;;;;;;;;5039658;28;20120;-73
2021/07/03 13:50:01;;;;;;;4.97;3.30;;;;;;;;;;5042967;28;20035;-73
2021/07/03 13:52:27;;;;;;;5.03;3.00;;;;;;;;;;5038122;28;20685;-73
2021/07/03 13:54:53;;;;;;;7.13;3.70;;;;;;;;;;5027179;28;20037;-74
2021/07/03 13:57:18;;;;;;;8.00;3.53;;;;;;;;;;5037081;28;20021;-72
2021/07/03 13:59:43;;;;;;;7.63;3.70;;;;;;;;;;5034300;28;20029;-78
2021/07/03 14:02:08;;;;;;;4.57;3.33;;;;;;;;;;5036492;28;20029;-79
2021/07/03 14:04:34;;;;;;;4.47;3.15;;;;;;;;;;5034309;28;20020;-77
2021/07/03 14:07:00;;;;;;;9.50;3.63;;;;;;;;;;5032542;28;20043;-79
2021/07/03 14:09:25;;;;;;;5.13;3.40;;;;;;;;;;5034595;28;20056;-78
2021/07/03 14:11:50;;;;;;;5.38;3.17;;;;;;;;;;5035828;28;20084;-78
2021/07/03 14:14:17;;;;;;;5.47;3.55;;;;;;;;;;5036387;28;20239;-78
2021/07/03 14:16:42;;;;;;;4.82;3.30;;;;;;;;;;5033701;28;20034;-79
2021/07/03 14:19:07;;;;;;;5.47;3.42;;;;;;;;;;5033619;28;20018;-79
2021/07/03 14:21:32;;;;;;;4.23;2.97;;;;;;;;;;5031070;28;20051;-71
2021/07/03 14:23:58;;;;;;;5.90;3.03;;;;;;;;;;5037668;28;20272;-75
2021/07/03 14:26:29;;;;;;;4.53;3.10;;;;;;;;;;5026571;28;20279;-72
2021/07/03 14:28:54;;;;;;;6.05;3.50;;;;;;;;;;5034802;28;20420;-75
2021/07/03 14:31:19;;;;;;;4.75;3.10;;;;;;;;;;5028844;28;20413;-74
2021/07/03 14:33:44;;;;;;;5.10;3.20;;;;;;;;;;5038859;28;20441;-74